^^
Grace C. Lehan Memorial Weather Station Historical Data
Daily Summary for September 16, 2021 Units:  Metric    English   Both
Daily Weekly Monthly Yearly
  High: Low: Average:
Temperature: 16.8 °C 7.6 °C 13.2 °C
Dew Point: 11.1 °C 6.9 °C 8.7 °C
Humidity: 96% 54% 76%
Wind Speed: 6.1km/h 0km/h 1.8km/h
Wind Gust: 25.7km/h - -
Wind- - SSW
Pressure: 1022.9 hPa 1009 hPa -
Precipitation: 0 mm    
 
 
Tabular Data for September 16, 2021
Time Temperature Dew Point Pressure Wind Wind Speed Wind Gust Humidity Rainfall Rate (Hourly) solar
00:04 7.6 °C 6.9 °C 1022.6 hPa Calm   4.8 km/h 95% 0.25 mm 0 W/m2
00:09 7.8 °C 7 °C 1022.9 hPa South 0.2 km/h 4.8 km/h 95% 0 mm 0 W/m2
00:14 7.9 °C 7.2 °C 1022.6 hPa Calm   4.8 km/h 95% 0 mm 0 W/m2
00:19 8.2 °C 7.5 °C 1022.6 hPa South 0.3 km/h 4.8 km/h 95.6% 0 mm 0 W/m2
00:24 8.4 °C 7.7 °C 1022.6 hPa Calm   4.8 km/h 95.1% 0 mm 0 W/m2
00:29 8.6 °C 7.9 °C 1022.6 hPa Calm   4.8 km/h 96% 0 mm 0 W/m2
00:34 8.7 °C 8.1 °C 1022.2 hPa South 0.2 km/h 4.8 km/h 96% 0 mm 0 W/m2
00:39 8.9 °C 8.3 °C 1021.9 hPa South 1 km/h 4.8 km/h 96% 0 mm 0 W/m2
00:44 9.2 °C 8.6 °C 1021.6 hPa South 1.4 km/h 8 km/h 96% 0 mm 0 W/m2
00:49 9.4 °C 8.8 °C 1021.6 hPa South 0.5 km/h 8 km/h 96% 0 mm 0 W/m2
00:54 9.6 °C 9 °C 1021.6 hPa Calm   8 km/h 96% 0 mm 0 W/m2
00:59 9.7 °C 9.1 °C 1021.2 hPa SSW 3.2 km/h 11.3 km/h 96% 0 mm 0 W/m2
01:04 9.9 °C 9.3 °C 1021.2 hPa SW 2.4 km/h 11.3 km/h 96% 0 mm 0 W/m2
01:09 10 °C 9.4 °C 1021.2 hPa WSW 3.4 km/h 11.3 km/h 96% 0 mm 0 W/m2
01:14 10.1 °C 9.5 °C 1021.2 hPa WSW 3.1 km/h 11.3 km/h 96% 0 mm 0 W/m2
01:19 10.2 °C 9.6 °C 1021.2 hPa SW 2.4 km/h 11.3 km/h 96% 0 mm 0 W/m2
01:20 10.2 °C 9.6 °C 1021.2 hPa Calm   11.3 km/h 96% 0 mm 0 W/m2
01:30 10.4 °C 9.8 °C 1021.2 hPa SW 3.2 km/h 11.3 km/h 96% 0 mm 0 W/m2
03:00 11.4 °C 10.8 °C 1020.2 hPa SSW 1.6 km/h 8 km/h 96% 0 mm 0 W/m2
03:30 11.6 °C 10.9 °C 1019.9 hPa SW 3.2 km/h 11.3 km/h 96% 0 mm 0 W/m2
04:04 11.7 °C 11.1 °C 1019.9 hPa SW 4.3 km/h 11.3 km/h 96% 0 mm 0 W/m2
04:09 11.7 °C 11 °C 1019.5 hPa SW 3.9 km/h 11.3 km/h 95.5% 0 mm 0 W/m2
04:14 11.7 °C 10.9 °C 1019.5 hPa SW 3.5 km/h 11.3 km/h 95% 0 mm 0 W/m2
04:19 11.7 °C 10.9 °C 1019.2 hPa SW 3.4 km/h 12.9 km/h 95% 0 mm 0 W/m2
04:24 11.8 °C 11 °C 1019.2 hPa SW 4 km/h 14.5 km/h 95% 0 mm 0 W/m2
04:29 11.8 °C 11 °C 1019.2 hPa SW 1.3 km/h 14.5 km/h 95% 0 mm 0 W/m2
04:34 11.8 °C 11 °C 1019.2 hPa SW 2.1 km/h 14.5 km/h 95% 0 mm 0 W/m2
04:39 11.8 °C 11 °C 1019.5 hPa SW 1.6 km/h 11.3 km/h 95% 0 mm 0 W/m2
04:44 11.8 °C 11 °C 1019.2 hPa SW 1.6 km/h 11.3 km/h 95% 0 mm 0 W/m2
04:49 11.8 °C 11 °C 1019.2 hPa SW 4.5 km/h 11.3 km/h 94.8% 0 mm 0 W/m2
04:54 11.8 °C 10.9 °C 1019.2 hPa SW 3.1 km/h 11.3 km/h 94% 0 mm 0 W/m2
04:59 11.8 °C 10.9 °C 1019.2 hPa SW 3.2 km/h 11.3 km/h 94% 0 mm 0 W/m2
05:04 11.9 °C 10.9 °C 1019.2 hPa WSW 3.2 km/h 11.3 km/h 94% 0 mm 0 W/m2
05:09 11.9 °C 11 °C 1019.2 hPa WSW 3.5 km/h 11.3 km/h 93.8% 0 mm 0 W/m2
05:14 11.9 °C 10.8 °C 1019.2 hPa SW 2.9 km/h 11.3 km/h 93% 0 mm 0 W/m2
05:19 12 °C 10.9 °C 1019.2 hPa SW 4 km/h 11.3 km/h 93% 0 mm 0 W/m2
05:24 12 °C 10.9 °C 1018.8 hPa SW 3.7 km/h 11.3 km/h 93% 0 mm 0 W/m2
05:29 12 °C 10.7 °C 1018.8 hPa SW 4.2 km/h 11.3 km/h 92% 0 mm 0 W/m2
05:34 12.1 °C 10.8 °C 1018.8 hPa SW 4.5 km/h 11.3 km/h 92% 0 mm 0 W/m2
05:39 12.1 °C 10.8 °C 1018.8 hPa SW 5 km/h 11.3 km/h 92% 0 mm 0 W/m2
05:44 12.1 °C 10.8 °C 1018.8 hPa SW 4.2 km/h 20.9 km/h 91.8% 0 mm 0 W/m2
05:49 12.1 °C 10.7 °C 1018.8 hPa SW 3.5 km/h 20.9 km/h 91% 0 mm 0 W/m2
05:54 12.1 °C 10.7 °C 1018.8 hPa SW 2.4 km/h 20.9 km/h 91% 0 mm 0 W/m2
05:59 12.1 °C 10.7 °C 1019.2 hPa SW 2.9 km/h 20.9 km/h 91% 0 mm 0 W/m2
06:04 12.1 °C 10.6 °C 1018.8 hPa SW 2.3 km/h 20.9 km/h 91% 0 mm 0 W/m2
06:09 12 °C 10.6 °C 1018.8 hPa SW 1.1 km/h 9.7 km/h 91% 0 mm 0 W/m2
06:14 11.9 °C 10.6 °C 1018.8 hPa SW 0.8 km/h 9.7 km/h 91% 0 mm 0 W/m2
06:19 11.9 °C 10.5 °C 1018.5 hPa SW 0.3 km/h 9.7 km/h 91% 0 mm 0 W/m2
06:24 11.8 °C 10.4 °C 1018.5 hPa SW 1.3 km/h 9.7 km/h 91% 0 mm 0 W/m2
06:29 11.8 °C 10.3 °C 1018.8 hPa SW 0.5 km/h 9.7 km/h 91% 0 mm 0 W/m2
06:34 11.7 °C 10.3 °C 1018.8 hPa SW 0.3 km/h 9.7 km/h 91% 0 mm 0 W/m2
06:39 11.6 °C 10.2 °C 1018.5 hPa SW 0.2 km/h 4.8 km/h 91.1% 0 mm 0 W/m2
06:44 11.6 °C 10.3 °C 1018.8 hPa SW 0.5 km/h 4.8 km/h 92% 0 mm 0 W/m2
06:49 11.5 °C 10.2 °C 1018.5 hPa SW 0.2 km/h 4.8 km/h 92% 0 mm 0 W/m2
06:54 11.4 °C 10.2 °C 1018.5 hPa SW 0.3 km/h 4.8 km/h 92% 0 mm 0 W/m2
06:59 11.3 °C 10.1 °C 1018.5 hPa SW 0.3 km/h 4.8 km/h 92% 0 mm 0 W/m2
07:04 11.3 °C 10.1 °C 1018.2 hPa SW 0.2 km/h 4.8 km/h 92% 0 mm 0 W/m2
07:09 11.3 °C 10.1 °C 1018.2 hPa SW 0.5 km/h 4.8 km/h 92.1% 0 mm 0 W/m2
07:14 11.3 °C 10.3 °C 1017.8 hPa SW 1.1 km/h 6.4 km/h 93% 0 mm 0 W/m2
07:19 11.4 °C 10.3 °C 1017.8 hPa SW 1.4 km/h 11.3 km/h 93% 0 mm 0 W/m2
07:24 11.4 °C 10.3 °C 1017.8 hPa SW 1.1 km/h 11.3 km/h 93% 0 mm 0 W/m2
07:29 11.4 °C 10.3 °C 1018.2 hPa SW 2.7 km/h 11.3 km/h 93% 0 mm 5 W/m2
07:34 11.4 °C 10.3 °C 1018.2 hPa SW 1.8 km/h 11.3 km/h 93% 0 mm 7 W/m2
07:39 11.4 °C 10.3 °C 1017.8 hPa SW 0.6 km/h 11.3 km/h 92.5% 0 mm 11 W/m2
07:44 11.5 °C 10.3 °C 1017.8 hPa SW 1 km/h 11.3 km/h 92% 0 mm 12 W/m2
07:49 11.6 °C 10.3 °C 1017.8 hPa SW 1.3 km/h 11.3 km/h 92% 0 mm 12 W/m2
07:54 11.6 °C 10.3 °C 1017.8 hPa SW 0.2 km/h 11.3 km/h 92% 0 mm 16 W/m2
07:59 11.6 °C 10.3 °C 1017.5 hPa SW 0.3 km/h 11.3 km/h 92% 0 mm 16 W/m2
08:04 11.7 °C 10.4 °C 1017.5 hPa Calm     92% 0 mm 25 W/m2
08:09 11.7 °C 10.4 °C 1017.5 hPa SW 0.2 km/h 6.4 km/h 92% 0 mm 33 W/m2
08:14 11.7 °C 10.4 °C 1017.5 hPa SW 0.2 km/h 6.4 km/h 92% 0 mm 37 W/m2
08:19 11.7 °C 10.4 °C 1017.5 hPa SW 0.5 km/h 6.4 km/h 92% 0 mm 46 W/m2
08:24 11.7 °C 10.4 °C 1017.5 hPa Calm   6.4 km/h 92% 0 mm 47 W/m2
08:29 11.8 °C 10.5 °C 1017.5 hPa Calm   6.4 km/h 92% 0 mm 47 W/m2
08:34 11.8 °C 10.5 °C 1017.5 hPa Calm   6.4 km/h 92% 0 mm 51 W/m2
08:39 11.8 °C 10.5 °C 1017.5 hPa Calm   1.6 km/h 92% 0 mm 63 W/m2
08:44 11.8 °C 10.6 °C 1017.5 hPa SW 0.3 km/h 3.2 km/h 92% 0 mm 63 W/m2
08:49 11.8 °C 10.6 °C 1017.5 hPa Calm   3.2 km/h 92% 0 mm 62 W/m2
08:54 11.8 °C 10.6 °C 1017.8 hPa Calm   3.2 km/h 92% 0 mm 67 W/m2
08:59 11.8 °C 10.6 °C 1017.5 hPa Calm   3.2 km/h 92% 0 mm 88 W/m2
09:04 11.8 °C 10.6 °C 1017.5 hPa SW 0.3 km/h 3.2 km/h 92% 0 mm 107 W/m2
09:09 11.9 °C 10.7 °C 1017.5 hPa Calm   3.2 km/h 92% 0 mm 134 W/m2
09:14 12 °C 10.7 °C 1017.5 hPa SW 0.6 km/h 4.8 km/h 92% 0 mm 192 W/m2
09:19 12.1 °C 10.9 °C 1017.5 hPa SW 0.5 km/h 4.8 km/h 92% 0 mm 149 W/m2
09:24 12.3 °C 10.8 °C 1017.2 hPa SW 0.6 km/h 4.8 km/h 91% 0 mm 162 W/m2
09:29 12.4 °C 10.9 °C 1017.2 hPa Calm   4.8 km/h 90.9% 0 mm 149 W/m2
09:34 12.5 °C 10.9 °C 1017.2 hPa SW 0.3 km/h 4.8 km/h 90% 0 mm 120 W/m2
09:39 12.6 °C 10.9 °C 1017.2 hPa SW 1.3 km/h 8 km/h 89.5% 0 mm 109 W/m2
09:44 12.6 °C 10.8 °C 1017.2 hPa SW 0.6 km/h 8 km/h 89% 0 mm 114 W/m2
09:49 12.7 °C 10.7 °C 1016.8 hPa SW 1 km/h 8 km/h 88% 0 mm 128 W/m2
09:54 12.7 °C 10.7 °C 1016.8 hPa SW 0.8 km/h 8 km/h 87.7% 0 mm 134 W/m2
09:59 12.8 °C 10.7 °C 1016.8 hPa SW 0.3 km/h 8 km/h 87% 0 mm 135 W/m2
10:04 12.9 °C 10.7 °C 1016.8 hPa SW 0.6 km/h 8 km/h 86.5% 0 mm 127 W/m2
10:09 12.9 °C 10.6 °C 1016.8 hPa SW 0.3 km/h 8 km/h 85.7% 0 mm 111 W/m2
10:14 13 °C 10.5 °C 1016.8 hPa SW 1.3 km/h 8 km/h 84.6% 0 mm 118 W/m2
10:19 13.1 °C 10.3 °C 1016.8 hPa SW 0.6 km/h 8 km/h 83.6% 0 mm 120 W/m2
10:24 13.2 °C 10.2 °C 1016.5 hPa SW 2.6 km/h 9.7 km/h 82.3% 0 mm 123 W/m2
10:29 13.2 °C 10.1 °C 1016.5 hPa SW 1.3 km/h 9.7 km/h 81% 0 mm 137 W/m2
10:34 13.3 °C 9.9 °C 1016.1 hPa SW 0.3 km/h 9.7 km/h 80% 0 mm 148 W/m2
10:39 13.4 °C 9.8 °C 1016.1 hPa SW 3.2 km/h 11.3 km/h 78.9% 0 mm 171 W/m2
10:44 13.6 °C 9.8 °C 1016.5 hPa SW 2.1 km/h 11.3 km/h 77.9% 0 mm 167 W/m2
10:49 13.7 °C 9.8 °C 1016.5 hPa SW 1.6 km/h 11.3 km/h 77% 0 mm 178 W/m2
10:54 13.9 °C 9.8 °C 1016.1 hPa SW 3.1 km/h 11.3 km/h 76.5% 0 mm 171 W/m2
10:59 14.1 °C 9.7 °C 1016.1 hPa SW 2.3 km/h 11.3 km/h 75.3% 0 mm 132 W/m2
11:04 14.1 °C 9.7 °C 1015.8 hPa SW 6.1 km/h 16.1 km/h 74.5% 0 mm 190 W/m2
11:09 14.2 °C 9.4 °C 1015.8 hPa SW 1.9 km/h 16.1 km/h 73% 0 mm 165 W/m2
11:14 14.3 °C 9.6 °C 1015.8 hPa SW 3.2 km/h 16.1 km/h 73.1% 0 mm 167 W/m2
11:19 14.5 °C 9.8 °C 1015.8 hPa SW 1.6 km/h 16.1 km/h 73.3% 0 mm 165 W/m2
11:24 14.6 °C 9.6 °C 1015.5 hPa SW 3.2 km/h 16.1 km/h 71.8% 0 mm 163 W/m2
11:29 14.8 °C 9.6 °C 1015.1 hPa SW 2.6 km/h 16.1 km/h 71% 0 mm 162 W/m2
11:34 14.9 °C 9.6 °C 1015.1 hPa SW 3.7 km/h 16.1 km/h 70.7% 0 mm 195 W/m2
11:39 15 °C 9.4 °C 1015.1 hPa SW 4.5 km/h 14.5 km/h 69.3% 0 mm 174 W/m2
11:44 15.1 °C 9.4 °C 1014.8 hPa SW 2.3 km/h 14.5 km/h 68.9% 0 mm 162 W/m2
11:49 15.2 °C 9.6 °C 1014.8 hPa SW 2.7 km/h 14.5 km/h 69% 0 mm 149 W/m2
11:54 15.3 °C 9.3 °C 1014.8 hPa SW 1.9 km/h 14.5 km/h 67.4% 0 mm 146 W/m2
11:59 15.3 °C 9.3 °C 1014.4 hPa SW 2.6 km/h 14.5 km/h 67.2% 0 mm 179 W/m2
12:00 15.4 °C 9.3 °C 1014.4 hPa SW 1.6 km/h 14.5 km/h 67% 0 mm 153 W/m2
12:09 15.5 °C 9 °C 1014.1 hPa SW 2.9 km/h 8 km/h 65% 0 mm 225 W/m2
12:14 15.6 °C 8.8 °C 1014.1 hPa SW 3.4 km/h 14.5 km/h 64% 0 mm 239 W/m2
12:19 15.8 °C 8.8 °C 1013.8 hPa SW 4.5 km/h 16.1 km/h 63.4% 0 mm 239 W/m2
12:24 15.9 °C 8.7 °C 1013.8 hPa SW 5.8 km/h 25.7 km/h 62.3% 0 mm 144 W/m2
12:29 16.1 °C 8.5 °C 1013.4 hPa SW 4.5 km/h 25.7 km/h 60.9% 0 mm 160 W/m2
12:34 16.1 °C 8.3 °C 1013.4 hPa SW 3.5 km/h 25.7 km/h 60% 0 mm 214 W/m2
12:39 16.2 °C 8.2 °C 1013.4 hPa SW 5.6 km/h 19.3 km/h 59.3% 0 mm 283 W/m2
12:44 16.3 °C 8.3 °C 1013.1 hPa SW 1.6 km/h 19.3 km/h 59.2% 0 mm 288 W/m2
12:49 16.5 °C 8.4 °C 1013.1 hPa SW 2.6 km/h 19.3 km/h 58.5% 0 mm 200 W/m2
12:54 16.7 °C 8.2 °C 1013.1 hPa SW 3.2 km/h 19.3 km/h 57.5% 0 mm 163 W/m2
12:59 16.7 °C 8.7 °C 1013.1 hPa South 1.6 km/h 19.3 km/h 59.3% 0 mm 135 W/m2
13:04 16.7 °C 8.9 °C 1013.1 hPa SSW 2.6 km/h 19.3 km/h 59.9% 0 mm 274 W/m2
13:09 16.7 °C 8.9 °C 1012.8 hPa South 2.7 km/h 6.4 km/h 60.2% 0 mm 320 W/m2
13:14 16.8 °C 8.9 °C 1012.8 hPa South 2.4 km/h 8 km/h 60% 0 mm 278 W/m2
13:19 16.8 °C 8.9 °C 1012.8 hPa South 1.6 km/h 8 km/h 59.5% 0 mm 278 W/m2
13:24 16.8 °C 8.8 °C 1012.8 hPa South 1.6 km/h 8 km/h 59.2% 0 mm 243 W/m2
13:29 16.8 °C 8.6 °C 1012.4 hPa South 2.9 km/h 14.5 km/h 58.3% 0 mm 265 W/m2
13:34 16.8 °C 8.4 °C 1012.4 hPa South 2.9 km/h 14.5 km/h 57.9% 0 mm 260 W/m2
13:39 16.8 °C 8.4 °C 1012.4 hPa SSW 1.9 km/h 12.9 km/h 57.7% 0 mm 260 W/m2
13:44 16.8 °C 8 °C 1012.4 hPa South 4.5 km/h 12.9 km/h 56.2% 0 mm 118 W/m2
13:49 16.6 °C 7.9 °C 1012.1 hPa SSW 2.6 km/h 12.9 km/h 56.5% 0 mm 148 W/m2
13:54 16.5 °C 7.8 °C 1011.7 hPa South 3.4 km/h 12.9 km/h 56.2% 0 mm 160 W/m2
13:59 16.5 °C 7.5 °C 1011.7 hPa South 3.2 km/h 14.5 km/h 55.3% 0 mm 195 W/m2
14:04 16.5 °C 7.5 °C 1011.7 hPa South 3.7 km/h 14.5 km/h 55.2% 0 mm 213 W/m2
14:09 16.6 °C 7.5 °C 1011.7 hPa South 3.2 km/h 9.7 km/h 54.9% 0 mm 158 W/m2
14:14 16.7 °C 7.4 °C 1011.7 hPa SSW 2.6 km/h 12.9 km/h 54.4% 0 mm 109 W/m2
14:19 16.7 °C 7.4 °C 1011.7 hPa SSW 2.3 km/h 12.9 km/h 54.4% 0 mm 102 W/m2
14:24 16.7 °C 7.3 °C 1011.7 hPa SSW 1 km/h 12.9 km/h 54.2% 0 mm 132 W/m2
14:29 16.7 °C 7.4 °C 1011.7 hPa SSW 0.5 km/h 12.9 km/h 54.2% 0 mm 123 W/m2
14:34 16.7 °C 7.3 °C 1011.7 hPa SSW 2.1 km/h 12.9 km/h 54% 0 mm 77 W/m2
14:39 16.7 °C 7.3 °C 1011.7 hPa SSW 1 km/h 6.4 km/h 54% 0 mm 69 W/m2
14:44 16.6 °C 7.3 °C 1011.7 hPa SSW 1.3 km/h 6.4 km/h 54% 0 mm 60 W/m2
14:49 16.6 °C 7.4 °C 1011.7 hPa SSW 1.8 km/h 11.3 km/h 54.7% 0 mm 56 W/m2
14:54 16.4 °C 7.6 °C 1011.7 hPa SSW 1.4 km/h 11.3 km/h 55.7% 0 mm 56 W/m2
14:59 16.3 °C 7.7 °C 1011.7 hPa SSW 0.8 km/h 11.3 km/h 56.9% 0 mm 54 W/m2
15:04 16.1 °C 7.7 °C 1011.7 hPa SSW 2.3 km/h 11.3 km/h 57.2% 0 mm 53 W/m2
15:09 16 °C 7.7 °C 1011.7 hPa SSW 1.9 km/h 9.7 km/h 58% 0 mm 53 W/m2
15:14 15.9 °C 7.7 °C 1011.7 hPa SSW 3.1 km/h 17.7 km/h 58% 0 mm 51 W/m2
15:19 15.8 °C 7.6 °C 1011.7 hPa SW 2.1 km/h 17.7 km/h 58% 0 mm 44 W/m2
15:24 15.8 °C 7.6 °C 1011.7 hPa SW 1.8 km/h 17.7 km/h 58.1% 0 mm 39 W/m2
15:29 15.8 °C 7.6 °C 1011.4 hPa SSW 1.6 km/h 17.7 km/h 58.3% 0 mm 33 W/m2
15:34 15.7 °C 7.6 °C 1011.4 hPa SSW 1.3 km/h 17.7 km/h 58.4% 0 mm 32 W/m2
15:39 15.6 °C 7.6 °C 1011.4 hPa SSW 0.8 km/h 4.8 km/h 59% 0 mm 30 W/m2
15:44 15.5 °C 7.6 °C 1011.4 hPa SSW 1.4 km/h 9.7 km/h 59% 0 mm 26 W/m2
15:49 15.4 °C 7.5 °C 1011.4 hPa SW 1.6 km/h 11.3 km/h 59.3% 0 mm 23 W/m2
15:54 15.3 °C 7.6 °C 1011.4 hPa SW 1.3 km/h 11.3 km/h 60% 0 mm 19 W/m2
15:59 15.2 °C 7.5 °C 1011.4 hPa SW 1.4 km/h 11.3 km/h 60.2% 0 mm 14 W/m2
16:00 15.1 °C 7.7 °C 1011.4 hPa SW 1.6 km/h 11.3 km/h 61% 0 mm 11 W/m2
16:09 14.9 °C 7.5 °C 1011.4 hPa SW 2.4 km/h 8 km/h 61% 0 mm 7 W/m2
16:14 14.9 °C 7.4 °C 1011.4 hPa SSW 1.4 km/h 8 km/h 61% 0 mm 5 W/m2
16:19 14.8 °C 7.4 °C 1011.1 hPa SSW 1.4 km/h 8 km/h 61% 0 mm 0 W/m2
16:24 14.8 °C 7.3 °C 1011.1 hPa SSW 2.4 km/h 8 km/h 61% 0 mm 0 W/m2
16:29 14.7 °C 7.3 °C 1011.1 hPa SSW 1.4 km/h 8 km/h 61% 0 mm 0 W/m2
16:34 14.6 °C 7.3 °C 1011.1 hPa SSW 1.4 km/h 8 km/h 61.2% 0 mm 0 W/m2
16:39 14.6 °C 7.3 °C 1011.1 hPa SSW 2.1 km/h 6.4 km/h 62% 0 mm 0 W/m2
16:44 14.4 °C 7.2 °C 1011.1 hPa SSW 1.4 km/h 6.4 km/h 61.8% 0 mm 0 W/m2
16:49 14.4 °C 7.2 °C 1011.1 hPa SW 2.1 km/h 9.7 km/h 62% 0 mm 0 W/m2
16:54 14.3 °C 7.3 °C 1011.4 hPa SW 2.4 km/h 9.7 km/h 62.8% 0 mm 0 W/m2
16:59 14.2 °C 7.2 °C 1011.4 hPa SW 1.1 km/h 9.7 km/h 63% 0 mm 0 W/m2
17:04 14.1 °C 7.2 °C 1011.1 hPa SW 1.3 km/h 9.7 km/h 63% 0 mm 0 W/m2
17:09 14 °C 7.2 °C 1011.4 hPa SW 1.9 km/h 8 km/h 63.7% 0 mm 0 W/m2
17:14 13.9 °C 7.2 °C 1011.4 hPa SW 1 km/h 8 km/h 64% 0 mm 0 W/m2
17:19 13.8 °C 7.2 °C 1011.4 hPa SW 1.6 km/h 8 km/h 64% 0 mm 0 W/m2
17:24 13.8 °C 7.2 °C 1011.4 hPa SW 1.1 km/h 8 km/h 64.3% 0 mm 0 W/m2
17:29 13.7 °C 7.3 °C 1011.4 hPa SW 1.4 km/h 8 km/h 65% 0 mm 0 W/m2
17:34 13.7 °C 7.2 °C 1011.4 hPa SW 1.3 km/h 8 km/h 65% 0 mm 0 W/m2
17:39 13.7 °C 7.3 °C 1011.4 hPa SW 0.2 km/h 6.4 km/h 65.3% 0 mm 0 W/m2
17:44 13.6 °C 7.4 °C 1011.4 hPa Calm   6.4 km/h 65.9% 0 mm 0 W/m2
17:49 13.6 °C 7.3 °C 1011.4 hPa Calm   6.4 km/h 66% 0 mm 0 W/m2
17:54 13.4 °C 7.2 °C 1011.4 hPa SW 0.6 km/h 6.4 km/h 66% 0 mm 0 W/m2
17:59 13.4 °C 7.3 °C 1011.4 hPa SW 0.5 km/h 6.4 km/h 66.4% 0 mm 0 W/m2
18:04 13.3 °C 7.3 °C 1011.4 hPa SW 1.1 km/h 8 km/h 67% 0 mm 0 W/m2
18:09 13.2 °C 7.2 °C 1011.4 hPa SW 1 km/h 8 km/h 67% 0 mm 0 W/m2
18:14 13.2 °C 7.2 °C 1011.4 hPa SW 1.3 km/h 8 km/h 67% 0 mm 0 W/m2
18:19 13.1 °C 7.2 °C 1011.4 hPa SW 1.6 km/h 8 km/h 67.5% 0 mm 0 W/m2
18:24 13 °C 7.3 °C 1011.1 hPa SW 4.2 km/h 9.7 km/h 68% 0 mm 0 W/m2
18:29 13 °C 7.2 °C 1011.1 hPa SW 2.6 km/h 9.7 km/h 68% 0 mm 0 W/m2
18:34 12.9 °C 7.2 °C 1011.1 hPa SW 3.4 km/h 11.3 km/h 68% 0 mm 0 W/m2
18:39 12.9 °C 7.1 °C 1011.1 hPa SW 1.8 km/h 11.3 km/h 68% 0 mm 0 W/m2
18:44 12.8 °C 7.1 °C 1011.1 hPa SW 1.9 km/h 11.3 km/h 68% 0 mm 0 W/m2
18:49 12.8 °C 7.1 °C 1011.1 hPa SW 1.8 km/h 11.3 km/h 68% 0 mm 0 W/m2
18:54 12.8 °C 7.1 °C 1011.1 hPa SW 3.2 km/h 11.3 km/h 68% 0 mm 0 W/m2
18:59 12.8 °C 7.1 °C 1010.7 hPa SW 3.9 km/h 11.3 km/h 68% 0 mm 0 W/m2
19:04 12.8 °C 7.1 °C 1010.7 hPa SW 3.7 km/h 11.3 km/h 68% 0 mm 0 W/m2
19:09 12.8 °C 7.1 °C 1010.7 hPa SW 4.5 km/h 9.7 km/h 68% 0 mm 0 W/m2
19:14 12.9 °C 7.1 °C 1011.1 hPa SW 4.2 km/h 11.3 km/h 68% 0 mm 0 W/m2
19:19 12.9 °C 7.2 °C 1011.1 hPa SW 3.4 km/h 11.3 km/h 68% 0 mm 0 W/m2
19:24 12.9 °C 7.2 °C 1010.7 hPa SW 2.7 km/h 11.3 km/h 68% 0 mm 0 W/m2
19:29 12.9 °C 7.2 °C 1010.7 hPa SW 0.8 km/h 11.3 km/h 68% 0 mm 0 W/m2
19:34 13 °C 7.2 °C 1010.7 hPa SW 0.6 km/h 11.3 km/h 68% 0 mm 0 W/m2
19:39 13 °C 7.2 °C 1010.7 hPa SW 0.2 km/h 6.4 km/h 68% 0 mm 0 W/m2
19:44 12.9 °C 7.2 °C 1010.4 hPa SW 1.3 km/h 6.4 km/h 68% 0 mm 0 W/m2
19:49 13 °C 7.2 °C 1010.4 hPa SSW 2.9 km/h 9.7 km/h 68% 0 mm 0 W/m2
19:54 13.1 °C 7.3 °C 1010.4 hPa SSW 1.9 km/h 9.7 km/h 68.3% 0 mm 0 W/m2
19:59 13.1 °C 7.6 °C 1010.4 hPa SSW 1.1 km/h 9.7 km/h 69% 0 mm 0 W/m2
20:09 13 °C 7.5 °C 1010.4 hPa SSW 0.5 km/h 4.8 km/h 69% 0 mm 0 W/m2
20:14 13 °C 7.4 °C 1010.4 hPa SSW 0.5 km/h 4.8 km/h 69% 0 mm 0 W/m2
20:19 12.9 °C 7.4 °C 1010.7 hPa SSW 1.6 km/h 6.4 km/h 69% 0 mm 0 W/m2
20:24 12.9 °C 7.4 °C 1010.7 hPa SSW 0.2 km/h 6.4 km/h 69% 0 mm 0 W/m2
20:29 12.9 °C 7.4 °C 1010.7 hPa SSW 1.9 km/h 6.4 km/h 68.9% 0 mm 0 W/m2
20:34 12.9 °C 7.2 °C 1010.4 hPa SSW 2.3 km/h 6.4 km/h 68% 0 mm 0 W/m2
20:39 13 °C 7.2 °C 1010.4 hPa SSW 2.3 km/h 6.4 km/h 68% 0 mm 0 W/m2
20:44 13.1 °C 7.1 °C 1010.4 hPa SSW 2.3 km/h 8 km/h 67.2% 0 mm 0 W/m2
20:49 13.1 °C 7.1 °C 1010.4 hPa SSW 1.4 km/h 8 km/h 67% 0 mm 0 W/m2
20:54 13.2 °C 7.1 °C 1010.4 hPa South 2.3 km/h 9.7 km/h 66.6% 0 mm 0 W/m2
20:59 13.2 °C 7 °C 1010 hPa South 1.4 km/h 9.7 km/h 66% 0 mm 0 W/m2
21:04 13.3 °C 7.1 °C 1010 hPa South 2.3 km/h 9.7 km/h 66% 0 mm 0 W/m2
21:09 13.3 °C 7.1 °C 1010 hPa South 2.6 km/h 8 km/h 66.2% 0 mm 0 W/m2
21:14 13.3 °C 7.2 °C 1010 hPa South 0.3 km/h 8 km/h 66.4% 0 mm 0 W/m2
21:19 13.3 °C 7.3 °C 1010 hPa South 1.4 km/h 8 km/h 67% 0 mm 0 W/m2
21:24 13.4 °C 7.3 °C 1010 hPa South 1.6 km/h 9.7 km/h 66.7% 0 mm 0 W/m2
21:29 13.4 °C 7.3 °C 1010 hPa South 1.4 km/h 9.7 km/h 66.5% 0 mm 0 W/m2
21:34 13.4 °C 7.4 °C 1010 hPa South 2.1 km/h 9.7 km/h 67% 0 mm 0 W/m2
21:39 13.4 °C 7.4 °C 1010 hPa South 2.4 km/h 8 km/h 67% 0 mm 0 W/m2
21:44 13.4 °C 7.4 °C 1010 hPa South 2.4 km/h 8 km/h 67.2% 0 mm 0 W/m2
21:49 13.3 °C 7.5 °C 1010 hPa South 0.6 km/h 8 km/h 67.9% 0 mm 0 W/m2
21:54 13.2 °C 7.5 °C 1009.7 hPa South 1 km/h 8 km/h 68.5% 0 mm 0 W/m2
21:59 13 °C 7.4 °C 1009.7 hPa Calm   8 km/h 69% 0 mm 0 W/m2
22:04 12.9 °C 7.5 °C 1009.7 hPa South 1.1 km/h 8 km/h 69.8% 0 mm 0 W/m2
22:09 12.8 °C 7.5 °C 1009.7 hPa South 2.6 km/h 8 km/h 70.1% 0 mm 0 W/m2
22:14 12.7 °C 7.6 °C 1009.4 hPa South 3.4 km/h 8 km/h 71% 0 mm 0 W/m2
22:19 12.6 °C 7.6 °C 1009.4 hPa South 2.3 km/h 8 km/h 71.4% 0 mm 0 W/m2
22:24 12.6 °C 7.7 °C 1009.4 hPa South 2.7 km/h 8 km/h 72% 0 mm 0 W/m2
22:29 12.6 °C 7.7 °C 1009.4 hPa South 1.9 km/h 8 km/h 72% 0 mm 0 W/m2
22:34 12.6 °C 7.7 °C 1009.4 hPa South 1.1 km/h 8 km/h 72% 0 mm 0 W/m2
22:39 12.5 °C 7.7 °C 1009.7 hPa South 1 km/h 6.4 km/h 72.4% 0 mm 0 W/m2
22:44 12.4 °C 7.8 °C 1009.7 hPa South 1.8 km/h 6.4 km/h 73% 0 mm 0 W/m2
22:49 12.4 °C 7.7 °C 1009.4 hPa South 2.4 km/h 6.4 km/h 73% 0 mm 0 W/m2
22:54 12.4 °C 7.8 °C 1009.7 hPa South 2.1 km/h 6.4 km/h 73.5% 0 mm 0 W/m2
22:59 12.4 °C 7.9 °C 1009.7 hPa South 1.1 km/h 6.4 km/h 74% 0 mm 0 W/m2
23:00 12.4 °C 7.9 °C 1009.4 hPa South 3.2 km/h 6.4 km/h 74% 0 mm 0 W/m2
23:09 12.3 °C 7.8 °C 1009.4 hPa South 1 km/h 4.8 km/h 74% 0 mm 0 W/m2
23:14 12.3 °C 8 °C 1009.4 hPa South 0.3 km/h 4.8 km/h 74.9% 0 mm 0 W/m2
23:19 12.3 °C 7.9 °C 1009.4 hPa South 2.9 km/h 8 km/h 75% 0 mm 0 W/m2
23:24 12.2 °C 7.9 °C 1009 hPa South 3.7 km/h 9.7 km/h 75% 0 mm 0 W/m2
23:29 12.2 °C 8.1 °C 1009 hPa South 1.1 km/h 9.7 km/h 76% 0 mm 0 W/m2
23:34 12.2 °C 8.1 °C 1009.4 hPa South 0.3 km/h 9.7 km/h 76% 0 mm 0 W/m2
23:39 12.2 °C 8.1 °C 1009.4 hPa Calm   3.2 km/h 76% 0 mm 0 W/m2
23:44 12 °C 8 °C 1009 hPa Calm   3.2 km/h 76.5% 0 mm 0 W/m2
23:49 11.9 °C 8 °C 1009 hPa Calm   3.2 km/h 77.3% 0 mm 0 W/m2
23:54 11.8 °C 8.1 °C 1009 hPa South 0.8 km/h 4.8 km/h 78% 0 mm 0 W/m2
23:59 11.7 °C 8 °C 1009 hPa Calm   4.8 km/h 78% 0 mm 0 W/m2
Hartford County Weather
Compliments of Weather Underground - 4 mb